createdAt,value
2022-12-18T00:03:49.187Z,58.28
2022-12-18T00:06:16.694Z,59.35
2022-12-18T00:08:44.910Z,52.50
2022-12-18T00:11:20.332Z,56.63
2022-12-18T00:13:47.431Z,50.92
2022-12-18T00:16:16.755Z,52.20
2022-12-18T00:18:43.752Z,51.38
2022-12-18T00:21:12.980Z,52.97
2022-12-18T00:23:41.629Z,51.47
2022-12-18T00:26:16.612Z,56.15
2022-12-18T00:28:44.261Z,54.25
2022-12-18T00:31:13.827Z,53.50
2022-12-18T00:33:40.921Z,43.23
2022-12-18T00:36:13.154Z,53.25
2022-12-18T00:38:39.782Z,58.70
2022-12-18T00:41:07.965Z,59.88
2022-12-18T00:43:34.420Z,54.70
2022-12-18T00:46:01.095Z,53.80
2022-12-18T00:48:27.689Z,54.42
2022-12-18T00:50:54.389Z,52.13
2022-12-18T00:53:21.372Z,53.70
2022-12-18T00:55:47.971Z,51.85
2022-12-18T00:58:17.249Z,55.50
2022-12-18T01:00:44.195Z,48.47
2022-12-18T01:03:15.008Z,48.97
2022-12-18T01:05:42.594Z,52.03
2022-12-18T01:08:09.512Z,49.92
2022-12-18T01:10:36.065Z,45.60
2022-12-18T01:13:02.588Z,47.38
2022-12-18T01:15:29.100Z,44.80
2022-12-18T01:17:55.567Z,44.63
2022-12-18T01:20:22.075Z,38.90
2022-12-18T01:22:48.542Z,45.85
2022-12-18T01:25:15.111Z,44.92
2022-12-18T01:27:41.664Z,44.33
2022-12-18T01:30:08.767Z,41.90
2022-12-18T01:32:35.366Z,50.67
2022-12-18T01:35:02.131Z,49.70
2022-12-18T01:37:28.646Z,46.70
2022-12-18T01:39:57.647Z,55.58
2022-12-18T01:42:24.221Z,47.53
2022-12-18T01:44:59.627Z,47.78
2022-12-18T01:47:34.718Z,43.67
2022-12-18T01:50:07.546Z,51.83
2022-12-18T01:52:35.641Z,46.63
2022-12-18T01:55:04.124Z,50.95
2022-12-18T01:57:30.767Z,47.53
2022-12-18T02:00:04.624Z,55.22
2022-12-18T02:02:33.873Z,46.28
2022-12-18T02:05:01.041Z,46.05
2022-12-18T02:07:33.272Z,50.33
2022-12-18T02:10:27.634Z,51.80
2022-12-18T02:13:00.007Z,48.25
2022-12-18T02:15:34.959Z,50.53
2022-12-18T02:18:07.581Z,49.30
2022-12-18T02:20:42.781Z,52.65
2022-12-18T02:23:25.208Z,55.30
2022-12-18T02:26:15.443Z,61.10
2022-12-18T02:29:07.227Z,58.72
2022-12-18T02:31:44.387Z,51.50
2022-12-18T02:34:12.977Z,53.80
2022-12-18T02:36:43.931Z,54.97
2022-12-18T02:39:13.539Z,47.30
2022-12-18T02:41:40.980Z,46.60
2022-12-18T02:44:10.679Z,56.25
2022-12-18T02:46:57.501Z,46.88
2022-12-18T02:49:52.929Z,50.15
2022-12-18T02:52:37.954Z,58.25
2022-12-18T02:55:51.421Z,54.55
2022-12-18T02:58:48.161Z,52.08
2022-12-18T03:01:26.971Z,47.75
2022-12-18T03:04:00.276Z,51.23
2022-12-18T03:06:41.882Z,54.53
2022-12-18T03:09:12.082Z,46.20
2022-12-18T03:12:01.509Z,47.40
2022-12-18T03:14:32.293Z,48.27
2022-12-18T03:17:02.875Z,54.43
2022-12-18T03:19:32.616Z,47.83
2022-12-18T03:22:03.136Z,48.20
2022-12-18T03:27:03.800Z,47.28
2022-12-18T03:29:56.015Z,47.10
2022-12-18T03:32:30.138Z,46.40
2022-12-18T03:35:02.484Z,50.90
2022-12-18T03:37:29.034Z,49.78
2022-12-18T03:39:55.680Z,51.15
2022-12-18T03:42:49.749Z,46.15
2022-12-18T03:45:33.639Z,47.03
2022-12-18T03:48:07.104Z,48.67
2022-12-18T03:50:39.352Z,48.83
2022-12-18T03:53:21.295Z,46.05
2022-12-18T03:55:50.294Z,46.88
2022-12-18T03:58:21.169Z,43.25
2022-12-18T04:00:50.666Z,47.05
2022-12-18T04:03:22.656Z,44.75
2022-12-18T04:05:55.266Z,44.30
2022-12-18T04:08:23.470Z,43.53
2022-12-18T04:10:49.958Z,43.38
2022-12-18T04:13:29.686Z,41.80
2022-12-18T04:15:56.379Z,40.97
2022-12-18T04:18:22.993Z,43.85
2022-12-18T04:20:49.458Z,42.40
2022-12-18T04:23:16.008Z,38.60
2022-12-18T04:25:42.542Z,44.80
2022-12-18T04:28:09.111Z,44.70
2022-12-18T04:30:35.711Z,47.97
2022-12-18T04:33:02.336Z,43.38
2022-12-18T04:35:28.845Z,43.28
2022-12-18T04:37:55.376Z,43.92
2022-12-18T04:40:22.276Z,43.90
2022-12-18T04:42:48.906Z,46.03
2022-12-18T04:45:15.602Z,46.03
2022-12-18T04:47:42.263Z,48.10
2022-12-18T04:50:09.016Z,43.72
2022-12-18T04:52:35.560Z,41.75
2022-12-18T04:55:02.055Z,47.75
2022-12-18T04:57:28.599Z,45.67
2022-12-18T04:59:55.049Z,37.92
2022-12-18T05:02:21.742Z,45.20
2022-12-18T05:04:48.322Z,43.65
2022-12-18T05:07:14.800Z,42.22
2022-12-18T05:09:41.348Z,41.75
2022-12-18T05:12:08.281Z,45.38
2022-12-18T05:14:34.743Z,48.05
2022-12-18T05:17:01.953Z,50.08
2022-12-18T05:19:28.520Z,41.55
2022-12-18T05:21:55.039Z,51.05
2022-12-18T05:24:22.219Z,48.47
2022-12-18T05:26:48.636Z,46.90
2022-12-18T05:29:15.278Z,50.13
2022-12-18T05:31:42.767Z,51.05
2022-12-18T05:34:10.159Z,52.35
2022-12-18T05:36:37.651Z,53.28
2022-12-18T05:39:04.377Z,56.70
2022-12-18T05:41:31.190Z,52.75
2022-12-18T05:43:57.778Z,50.42
2022-12-18T05:46:25.315Z,54.10
2022-12-18T05:48:52.242Z,45.88
2022-12-18T05:51:21.143Z,48.28
2022-12-18T05:53:49.118Z,47.22
2022-12-18T05:56:18.542Z,42.53
2022-12-18T05:58:46.334Z,42.75
2022-12-18T06:01:22.315Z,45.25
2022-12-18T06:03:49.491Z,43.10
2022-12-18T06:06:17.421Z,51.10
2022-12-18T06:08:46.491Z,41.20
2022-12-18T06:11:16.628Z,38.53
2022-12-18T06:13:43.202Z,42.25
2022-12-18T06:16:09.789Z,41.90
2022-12-18T06:18:36.532Z,49.75
2022-12-18T06:21:02.990Z,42.60
2022-12-18T06:23:32.050Z,41.53
2022-12-18T06:25:58.816Z,43.13
2022-12-18T06:28:25.355Z,43.30
2022-12-18T06:30:52.020Z,42.53
2022-12-18T06:33:18.737Z,43.33
2022-12-18T06:35:45.302Z,41.42
2022-12-18T06:38:11.805Z,42.90
2022-12-18T06:40:40.178Z,43.10
2022-12-18T06:43:07.300Z,47.10
2022-12-18T06:45:33.809Z,42.53
2022-12-18T06:48:00.386Z,42.08
2022-12-18T06:50:26.934Z,38.50
2022-12-18T06:52:53.426Z,42.67
2022-12-18T06:55:19.902Z,41.67
2022-12-18T06:57:46.424Z,42.00
2022-12-18T07:00:13.767Z,43.75
2022-12-18T07:02:41.443Z,44.53
2022-12-18T07:05:10.913Z,41.70
2022-12-18T07:07:37.962Z,31.27
2022-12-18T07:10:05.406Z,45.50
2022-12-18T07:12:31.883Z,43.42
2022-12-18T07:14:58.395Z,39.03
2022-12-18T07:17:25.105Z,43.92
2022-12-18T07:19:51.645Z,44.95
2022-12-18T07:22:18.208Z,47.08
2022-12-18T07:24:44.936Z,50.90
2022-12-18T07:27:11.392Z,43.53
2022-12-18T07:29:38.381Z,41.85
2022-12-18T07:32:06.373Z,43.20
2022-12-18T07:34:32.965Z,45.15
2022-12-18T07:36:59.699Z,49.85
2022-12-18T07:39:26.253Z,45.55
2022-12-18T07:42:11.567Z,46.75
2022-12-18T07:44:38.439Z,44.05
2022-12-18T07:47:10.388Z,42.60
2022-12-18T07:49:38.387Z,45.95
2022-12-18T07:52:04.982Z,43.83
2022-12-18T07:54:31.441Z,44.60
2022-12-18T07:56:57.926Z,42.47
2022-12-18T07:59:24.408Z,43.72
2022-12-18T08:01:50.965Z,45.15
2022-12-18T08:04:17.680Z,45.80
2022-12-18T08:06:47.755Z,42.40
2022-12-18T08:09:14.966Z,43.55
2022-12-18T08:11:41.628Z,45.53
2022-12-18T08:14:08.180Z,44.65
2022-12-18T08:16:35.007Z,47.80
2022-12-18T08:19:01.594Z,44.17
2022-12-18T08:21:30.275Z,46.15
2022-12-18T08:23:59.097Z,47.33
2022-12-18T08:26:28.528Z,47.03
2022-12-18T08:28:59.449Z,47.28
2022-12-18T08:31:27.903Z,43.42
2022-12-18T08:33:55.285Z,48.22
2022-12-18T08:36:22.590Z,50.33
2022-12-18T08:38:49.819Z,45.33
2022-12-18T08:41:17.901Z,45.30
2022-12-18T08:44:03.426Z,52.00
2022-12-18T08:46:35.468Z,47.45
2022-12-18T08:49:02.153Z,45.75
2022-12-18T08:51:29.475Z,49.83
2022-12-18T08:53:56.030Z,45.88
2022-12-18T08:56:22.590Z,42.75
2022-12-18T08:58:52.902Z,44.65
2022-12-18T09:01:19.908Z,45.40
2022-12-18T09:03:46.514Z,47.97
2022-12-18T09:06:18.996Z,47.60
2022-12-18T09:08:45.944Z,50.17
2022-12-18T09:11:21.365Z,49.80
2022-12-18T09:13:47.922Z,48.25
2022-12-18T09:16:14.748Z,52.85
2022-12-18T09:18:41.544Z,50.47
2022-12-18T09:21:19.843Z,55.58
2022-12-18T09:23:53.737Z,53.88
2022-12-18T09:26:21.409Z,56.30
2022-12-18T09:28:48.083Z,56.00
2022-12-18T09:31:15.128Z,54.38
2022-12-18T09:33:41.986Z,55.20
2022-12-18T09:36:11.873Z,55.78
2022-12-18T09:38:38.859Z,42.58
2022-12-18T09:41:30.478Z,54.63
2022-12-18T09:44:03.175Z,54.78
2022-12-18T09:46:38.425Z,54.95
2022-12-18T09:49:12.821Z,57.50
2022-12-18T09:51:57.202Z,52.80
2022-12-18T09:54:55.931Z,56.20
2022-12-18T09:57:25.949Z,56.42
2022-12-18T10:00:06.202Z,55.90
2022-12-18T10:02:33.774Z,52.60
2022-12-18T10:05:06.473Z,60.53
2022-12-18T10:08:08.036Z,54.15
2022-12-18T10:10:43.043Z,59.35
2022-12-18T10:13:20.751Z,58.22
2022-12-18T10:19:25.396Z,53.70
2022-12-18T10:22:24.829Z,59.88
2022-12-18T10:25:02.009Z,46.15
2022-12-18T10:27:30.027Z,56.38
2022-12-18T10:29:58.986Z,60.72
2022-12-18T10:32:30.416Z,59.20
2022-12-18T10:35:00.783Z,60.70
2022-12-18T10:40:16.639Z,59.97
2022-12-18T10:42:46.739Z,58.83
2022-12-18T10:45:18.696Z,61.20
2022-12-18T10:47:49.420Z,64.95
2022-12-18T10:53:30.801Z,56.15
2022-12-18T10:55:59.830Z,67.57
2022-12-18T10:58:36.129Z,61.58
2022-12-18T11:01:08.141Z,63.33
2022-12-18T11:03:40.524Z,61.88
2022-12-18T11:06:09.435Z,60.65
2022-12-18T11:08:36.325Z,61.88
2022-12-18T11:11:03.600Z,65.60
2022-12-18T11:13:32.448Z,59.13
2022-12-18T11:16:00.317Z,59.00
2022-12-18T11:18:36.125Z,66.60
2022-12-18T11:21:13.934Z,57.78
2022-12-18T11:23:54.912Z,57.22
2022-12-18T11:26:22.799Z,63.38
2022-12-18T11:29:08.618Z,64.63
2022-12-18T11:31:35.366Z,65.30
2022-12-18T11:34:31.495Z,60.50
2022-12-18T11:37:01.759Z,63.50
2022-12-18T11:39:50.809Z,66.68
2022-12-18T11:42:50.735Z,64.10
2022-12-18T11:45:29.827Z,65.07
2022-12-18T11:48:13.681Z,62.15
2022-12-18T11:50:52.315Z,67.95
2022-12-18T11:53:19.627Z,66.80
2022-12-18T11:56:27.084Z,70.18
2022-12-18T11:59:17.129Z,64.90
2022-12-18T12:02:12.911Z,65.25
2022-12-18T12:04:49.133Z,69.13
2022-12-18T12:07:46.792Z,72.22
2022-12-18T12:10:16.161Z,63.35
2022-12-18T12:13:00.965Z,67.68
2022-12-18T12:15:46.455Z,69.82
2022-12-18T12:19:04.111Z,69.03
2022-12-18T12:21:43.740Z,66.38
2022-12-18T12:24:31.188Z,63.80
2022-12-18T12:27:27.162Z,63.88
2022-12-18T12:30:02.533Z,66.47
2022-12-18T12:32:36.582Z,65.57
2022-12-18T12:35:19.320Z,65.97
2022-12-18T12:38:00.280Z,64.20
2022-12-18T12:43:28.189Z,68.72
2022-12-18T12:45:57.613Z,67.63
2022-12-18T12:48:46.785Z,67.18
2022-12-18T12:51:22.909Z,62.53
2022-12-18T12:53:50.207Z,63.83
2022-12-18T12:56:19.522Z,69.70
2022-12-18T12:58:52.906Z,65.28
2022-12-18T13:01:25.993Z,69.80
2022-12-18T13:04:22.959Z,68.03
2022-12-18T13:07:25.488Z,61.80
2022-12-18T13:10:15.465Z,67.13
2022-12-18T13:12:57.052Z,57.25
2022-12-18T13:15:44.256Z,61.00
2022-12-18T13:18:19.282Z,62.75
2022-12-18T13:20:55.276Z,64.90
2022-12-18T13:23:24.838Z,63.42
2022-12-18T13:26:27.922Z,66.10
2022-12-18T13:28:56.183Z,71.22
2022-12-18T13:31:32.852Z,59.97
2022-12-18T13:34:26.168Z,66.63
2022-12-18T13:36:55.882Z,61.65
2022-12-18T13:39:32.674Z,67.53
2022-12-18T13:42:07.892Z,59.50
2022-12-18T13:44:42.242Z,66.28
2022-12-18T13:47:27.285Z,60.20
2022-12-18T13:49:53.943Z,55.78
2022-12-18T13:52:24.016Z,60.97
2022-12-18T13:54:57.351Z,59.20
2022-12-18T13:57:35.168Z,64.65
2022-12-18T14:00:32.143Z,62.38
2022-12-18T14:03:00.727Z,59.50
2022-12-18T14:05:37.253Z,60.30
2022-12-18T14:08:16.240Z,65.97
2022-12-18T14:10:48.399Z,68.43
2022-12-18T14:13:32.614Z,65.43
2022-12-18T14:16:03.939Z,68.07
2022-12-18T14:18:34.445Z,61.90
2022-12-18T14:21:03.455Z,44.30
2022-12-18T14:23:40.812Z,65.43
2022-12-18T14:26:30.601Z,62.78
2022-12-18T14:28:59.566Z,58.92
2022-12-18T14:31:29.463Z,62.10
2022-12-18T14:33:56.667Z,47.67
2022-12-18T14:36:27.910Z,65.03
2022-12-18T14:38:57.165Z,61.40
2022-12-18T14:41:24.562Z,56.10
2022-12-18T14:43:54.017Z,64.35
2022-12-18T14:46:35.581Z,57.45
2022-12-18T14:49:23.853Z,66.47
2022-12-18T14:51:53.551Z,60.00
2022-12-18T14:54:22.272Z,62.55
2022-12-18T14:56:52.848Z,56.50
2022-12-18T14:59:25.155Z,54.92
2022-12-18T15:01:57.862Z,59.15
2022-12-18T15:04:37.644Z,59.20
2022-12-18T15:07:24.252Z,54.38
2022-12-18T15:10:14.243Z,59.20
2022-12-18T15:12:44.986Z,63.33
2022-12-18T15:18:12.696Z,57.03
2022-12-18T15:20:54.261Z,60.00
2022-12-18T15:23:22.837Z,60.83
2022-12-18T15:25:58.404Z,64.18
2022-12-18T15:28:35.864Z,61.40
2022-12-18T15:31:07.393Z,60.42
2022-12-18T15:33:40.479Z,63.92
2022-12-18T15:36:12.220Z,60.08
2022-12-18T15:38:38.886Z,58.30
2022-12-18T15:41:08.937Z,54.58
2022-12-18T15:43:40.195Z,64.10
2022-12-18T15:46:17.753Z,61.08
2022-12-18T15:48:49.784Z,60.22
2022-12-18T15:51:18.277Z,67.57
2022-12-18T15:53:45.690Z,63.13
2022-12-18T15:56:32.248Z,61.97
2022-12-18T15:58:59.156Z,57.08
2022-12-18T16:01:28.454Z,61.42
2022-12-18T16:03:56.065Z,60.78
2022-12-18T16:06:23.606Z,63.40
2022-12-18T16:08:50.559Z,68.47
2022-12-18T16:11:40.253Z,69.70
2022-12-18T16:14:17.816Z,67.03
2022-12-18T16:16:45.508Z,75.13
2022-12-18T16:19:12.210Z,67.82
2022-12-18T16:21:38.981Z,72.10
2022-12-18T16:24:05.786Z,71.85
2022-12-18T16:26:32.498Z,70.60
2022-12-18T16:28:58.975Z,67.80
2022-12-18T16:31:25.488Z,74.80
2022-12-18T16:34:11.583Z,69.05
2022-12-18T16:36:38.244Z,65.63
2022-12-18T16:39:05.132Z,69.22
2022-12-18T16:41:34.363Z,70.93
2022-12-18T16:44:01.985Z,71.97
2022-12-18T16:46:28.525Z,71.03
2022-12-18T16:48:55.188Z,73.70
2022-12-18T16:51:21.669Z,74.82
2022-12-18T16:53:48.169Z,78.03
2022-12-18T16:56:15.092Z,71.72
2022-12-18T16:58:41.748Z,72.43
2022-12-18T17:01:10.486Z,74.55
2022-12-18T17:03:39.815Z,75.85
2022-12-18T17:06:07.289Z,73.70
2022-12-18T17:08:33.862Z,76.18
2022-12-18T17:11:08.216Z,76.47
2022-12-18T17:13:35.218Z,79.32
2022-12-18T17:16:08.299Z,71.78
2022-12-18T17:18:35.746Z,75.75
2022-12-18T17:21:04.741Z,74.65
2022-12-18T17:23:31.299Z,76.90
2022-12-18T17:25:59.148Z,72.82
2022-12-18T17:28:27.280Z,71.05
2022-12-18T17:30:55.201Z,72.38
2022-12-18T17:33:23.622Z,77.20
2022-12-18T17:35:50.396Z,80.13
2022-12-18T17:38:17.540Z,77.82
2022-12-18T17:40:46.451Z,82.22
2022-12-18T17:43:13.209Z,71.57
2022-12-18T17:45:40.602Z,75.25
2022-12-18T17:48:09.155Z,73.93
2022-12-18T17:50:36.101Z,73.43
2022-12-18T17:53:03.225Z,77.20
2022-12-18T17:55:30.821Z,74.10
2022-12-18T17:57:57.328Z,72.22
2022-12-18T18:00:23.854Z,77.82
2022-12-18T18:02:50.471Z,76.80
2022-12-18T18:05:17.147Z,76.32
2022-12-18T18:07:43.663Z,77.93
2022-12-18T18:10:10.183Z,85.68
2022-12-18T18:12:55.729Z,77.07
2022-12-18T18:15:22.309Z,79.95
2022-12-18T18:17:48.819Z,75.18
2022-12-18T18:20:22.275Z,75.90
2022-12-18T18:22:49.220Z,77.03
2022-12-18T18:25:16.961Z,81.53
2022-12-18T18:27:45.719Z,78.32
2022-12-18T18:30:14.154Z,76.10
2022-12-18T18:32:40.824Z,84.43
2022-12-18T18:35:19.368Z,78.70
2022-12-18T18:37:54.862Z,80.03
2022-12-18T18:40:21.884Z,82.35
2022-12-18T18:42:48.441Z,80.82
2022-12-18T18:45:15.049Z,79.60
2022-12-18T18:47:43.363Z,72.13
2022-12-18T18:50:12.775Z,79.00
2022-12-18T18:52:39.463Z,80.82
2022-12-18T18:55:19.501Z,79.78
2022-12-18T18:57:52.139Z,80.88
2022-12-18T19:00:18.890Z,76.13
2022-12-18T19:02:45.909Z,80.85
2022-12-18T19:05:12.610Z,77.70
2022-12-18T19:07:39.138Z,77.50
2022-12-18T19:10:06.262Z,76.18
2022-12-18T19:12:52.868Z,70.53
2022-12-18T19:15:19.510Z,68.90
2022-12-18T19:17:47.505Z,77.43
2022-12-18T19:20:15.124Z,70.75
2022-12-18T19:22:41.968Z,69.93
2022-12-18T19:25:09.856Z,69.22
2022-12-18T19:27:38.857Z,66.07
2022-12-18T19:30:05.831Z,57.67
2022-12-18T19:32:32.493Z,56.67
2022-12-18T19:34:59.161Z,62.03
2022-12-18T19:37:25.869Z,64.97
2022-12-18T19:39:52.849Z,57.20
2022-12-18T19:42:28.169Z,60.40
2022-12-18T19:44:58.363Z,52.55
2022-12-18T19:47:24.914Z,52.88
2022-12-18T19:49:51.655Z,56.63
2022-12-18T19:52:18.189Z,55.78
2022-12-18T19:54:44.727Z,54.20
2022-12-18T19:57:12.444Z,59.35
2022-12-18T19:59:38.990Z,58.10
2022-12-18T20:02:06.741Z,51.10
2022-12-18T20:04:33.453Z,60.58
2022-12-18T20:06:59.927Z,55.00
2022-12-18T20:09:26.522Z,57.88
2022-12-18T20:11:54.245Z,53.33
2022-12-18T20:14:23.091Z,56.47
2022-12-18T20:16:51.394Z,60.65
2022-12-18T20:19:18.588Z,54.85
2022-12-18T20:21:45.902Z,58.78
2022-12-18T20:24:12.918Z,59.78
2022-12-18T20:26:40.565Z,56.15
2022-12-18T20:29:07.454Z,61.08
2022-12-18T20:31:34.003Z,61.10
2022-12-18T20:34:02.704Z,56.53
2022-12-18T20:39:01.770Z,57.40
2022-12-18T20:41:38.447Z,54.92
2022-12-18T20:44:23.075Z,57.50
2022-12-18T20:46:52.818Z,57.70
2022-12-18T20:49:19.736Z,56.75
2022-12-18T20:51:49.140Z,55.85
2022-12-18T20:54:15.960Z,60.42
2022-12-18T20:56:42.509Z,60.97
2022-12-18T20:59:09.047Z,62.42
2022-12-18T21:01:35.613Z,63.95
2022-12-18T21:04:04.084Z,63.00
2022-12-18T21:06:30.981Z,60.10
2022-12-18T21:08:58.805Z,59.13
2022-12-18T21:11:50.498Z,62.80
2022-12-18T21:14:20.444Z,61.10
2022-12-18T21:16:48.820Z,61.65
2022-12-18T21:19:18.056Z,59.75
2022-12-18T21:21:45.584Z,57.92
2022-12-18T21:24:12.346Z,63.58
2022-12-18T21:26:45.121Z,63.53
2022-12-18T21:29:15.829Z,60.13
2022-12-18T21:31:43.472Z,45.30
2022-12-18T21:34:16.933Z,60.65
2022-12-18T21:36:43.660Z,59.45
2022-12-18T21:39:10.359Z,62.92
2022-12-18T21:41:55.597Z,60.05
2022-12-18T21:44:23.905Z,61.50
2022-12-18T21:46:56.167Z,60.13
2022-12-18T21:49:26.689Z,60.50
2022-12-18T21:51:58.184Z,58.25
2022-12-18T21:54:26.533Z,59.28
2022-12-18T21:57:00.557Z,64.72
2022-12-18T21:59:35.987Z,61.47
2022-12-18T22:02:14.173Z,59.53
2022-12-18T22:04:42.046Z,61.22
2022-12-18T22:07:09.499Z,63.42
2022-12-18T22:09:37.909Z,60.03
2022-12-18T22:12:05.375Z,55.08
2022-12-18T22:14:32.519Z,62.63
2022-12-18T22:16:59.114Z,57.42
2022-12-18T22:19:26.625Z,56.70
2022-12-18T22:21:56.245Z,57.63
2022-12-18T22:24:25.636Z,61.17
2022-12-18T22:26:57.302Z,57.58
2022-12-18T22:29:47.699Z,58.45
2022-12-18T22:32:17.057Z,57.55
2022-12-18T22:35:03.098Z,55.85
2022-12-18T22:37:33.193Z,57.70
2022-12-18T22:39:59.787Z,55.67
2022-12-18T22:42:30.665Z,55.13
2022-12-18T22:44:57.239Z,58.65
2022-12-18T22:47:28.011Z,58.17
2022-12-18T22:49:56.186Z,57.58
2022-12-18T22:52:23.822Z,57.65
2022-12-18T22:54:53.163Z,56.03
2022-12-18T22:57:21.577Z,56.25
2022-12-18T22:59:49.192Z,59.83
2022-12-18T23:02:17.624Z,55.38
2022-12-18T23:04:44.995Z,52.42
2022-12-18T23:07:12.485Z,54.15
2022-12-18T23:09:39.905Z,58.45
2022-12-18T23:12:06.983Z,57.25
2022-12-18T23:14:33.799Z,52.90
2022-12-18T23:17:00.280Z,57.90
2022-12-18T23:19:27.091Z,55.70
2022-12-18T23:21:54.888Z,59.05
2022-12-18T23:24:25.394Z,55.35
2022-12-18T23:26:52.115Z,60.85
2022-12-18T23:29:18.860Z,56.13
2022-12-18T23:31:45.592Z,58.58
2022-12-18T23:34:13.461Z,58.88
2022-12-18T23:36:45.474Z,59.30
2022-12-18T23:39:15.323Z,57.15
2022-12-18T23:41:56.344Z,61.75
2022-12-18T23:44:22.984Z,56.45
2022-12-18T23:46:49.607Z,56.33
2022-12-18T23:49:16.197Z,54.58
2022-12-18T23:51:43.414Z,55.92
2022-12-18T23:54:10.424Z,57.88
2022-12-18T23:56:37.036Z,57.78
2022-12-18T23:59:03.544Z,59.17
